Alice International Airport
KALI : now visible

Airfield :











YOU CAN JOIN US ON...

 
LOGIN :

Register | Disclaimer

   EN    FR    IT 

 









Legend :    VFR   Marginal VFR   IFR   Intensive IFR   Very Intensive IFR
Visi :
Ceiling :
>= 8 km
>= 3000ft
5 to 8 km
1000 to 3000 ft
1500m to 5 km
500 to 1000 ft
800 to 1500m
200 to 500 ft
< 800m
< 200 ft
Symbols :   Thunderstorms  Fog  Heavy snow  Heavy precipitations  Wind > 20 kt






- Airport Elevation : 178 ft


KALI - Alice International

CURRENT METAR :
  • 271653Z AUTO 21004KT 10SM CLR 22/14 A2994 RMK AO2 SLP135 T02170144 $

EXPIRED METARs :
  • 271553Z AUTO 21010KT 10SM CLR 18/13 A2995 RMK AO2 SLP140 T01780133 $
  • 271453Z AUTO 22006KT 10SM CLR 13/12 A2994 RMK AO2 SLP139 T01330117 53011 $

TAF KALI
Valid from the 27 at 18:00 until the 28 at 18:00 UTC


271724Z 2718/2818 21008KT P6SM SKC
TEMPO 2806/2808 3SM BR
FM280800 VRB03KT 1SM BR SCT005
TEMPO 2811/2814 1/4SM FG VV003
FM281500 12008KT P6SM FEW015
KZHU FIR / North America



MET'MAP, your aeronautical weather chart ! - Copyright ORBIFLY December 2007 - Disclaimer

ORBIFLY MET'MAP TEAM :

Programming & Development : Alexandra Zaïnal
Original concept : Baudouin d'Aumeries
Technical & hardware support : Manuel Goepfert
Assistance : Marc-Olivier Méhu




SOURCES & CREDITS :

   NOAA       Earth
Advisory